createdAt,value
2017-11-14T00:01:25.214Z,14.89
2017-11-14T00:03:51.629Z,14.72
2017-11-14T00:06:18.072Z,14.59
2017-11-14T00:08:44.489Z,14.48
2017-11-14T00:11:10.933Z,14.45
2017-11-14T00:13:37.374Z,14.41
2017-11-14T00:16:03.945Z,14.39
2017-11-14T00:18:30.557Z,14.36
2017-11-14T00:20:56.998Z,14.30
2017-11-14T00:23:23.418Z,14.43
2017-11-14T00:25:50.058Z,14.45
2017-11-14T00:28:16.476Z,14.55
2017-11-14T00:30:42.918Z,14.63
2017-11-14T00:33:09.383Z,14.60
2017-11-14T00:35:35.882Z,14.55
2017-11-14T00:38:02.456Z,14.59
2017-11-14T00:40:28.963Z,14.86
2017-11-14T00:42:55.527Z,15.20
2017-11-14T00:45:22.143Z,15.54
2017-11-14T00:47:48.805Z,15.73
2017-11-14T00:50:15.444Z,15.82
2017-11-14T00:52:41.885Z,15.87
2017-11-14T00:55:08.587Z,15.91
2017-11-14T00:57:35.162Z,15.89
2017-11-14T01:00:01.798Z,15.88
2017-11-14T01:02:28.411Z,15.80
2017-11-14T01:04:54.662Z,15.68
2017-11-14T01:07:21.297Z,15.59
2017-11-14T01:09:47.818Z,15.39
2017-11-14T01:12:14.331Z,15.34
2017-11-14T01:14:40.750Z,15.31
2017-11-14T01:17:07.444Z,15.28
2017-11-14T01:19:33.932Z,15.27
2017-11-14T01:22:00.374Z,15.34
2017-11-14T01:24:26.792Z,15.35
2017-11-14T01:26:53.233Z,15.34
2017-11-14T01:29:19.675Z,15.35
2017-11-14T01:31:46.092Z,15.37
2017-11-14T01:34:12.677Z,15.38
2017-11-14T01:36:39.178Z,15.40
2017-11-14T01:39:05.722Z,15.37
2017-11-14T01:41:32.134Z,15.28
2017-11-14T01:43:58.577Z,15.29
2017-11-14T01:46:25.241Z,15.29
2017-11-14T01:48:51.889Z,15.32
2017-11-14T01:51:18.503Z,15.32
2017-11-14T01:53:45.169Z,15.33
2017-11-14T01:56:11.788Z,15.41
2017-11-14T01:58:38.203Z,15.47
2017-11-14T02:01:04.870Z,15.38
2017-11-14T02:03:31.321Z,15.21
2017-11-14T02:05:57.931Z,15.20
2017-11-14T02:08:24.995Z,15.22
2017-11-14T02:10:51.649Z,15.29
2017-11-14T02:13:18.171Z,15.28
2017-11-14T02:15:44.672Z,15.47
2017-11-14T02:18:11.090Z,15.58
2017-11-14T02:20:37.556Z,15.62
2017-11-14T02:23:04.213Z,15.75
2017-11-14T02:25:30.840Z,15.98
2017-11-14T02:27:57.233Z,16.24
2017-11-14T02:30:23.699Z,16.37
2017-11-14T02:32:50.358Z,16.43
2017-11-14T02:35:16.860Z,16.45
2017-11-14T02:37:43.275Z,16.36
2017-11-14T02:40:09.716Z,16.23
2017-11-14T02:42:36.295Z,16.15
2017-11-14T02:45:02.625Z,16.11
2017-11-14T02:47:29.117Z,16.12
2017-11-14T02:49:55.562Z,16.17
2017-11-14T02:52:22.234Z,16.30
2017-11-14T02:54:48.872Z,16.31
2017-11-14T02:57:15.489Z,16.32
2017-11-14T02:59:42.149Z,16.37
2017-11-14T03:02:08.670Z,16.41
2017-11-14T03:04:35.027Z,16.59
2017-11-14T03:07:01.635Z,16.66
2017-11-14T03:09:28.047Z,16.69
2017-11-14T03:11:54.489Z,16.72
2017-11-14T03:14:21.031Z,16.70
2017-11-14T03:16:47.448Z,16.68
2017-11-14T03:19:13.889Z,16.70
2017-11-14T03:21:40.408Z,16.79
2017-11-14T03:24:06.849Z,16.83
2017-11-14T03:26:33.290Z,16.88
2017-11-14T03:28:59.970Z,17.00
2017-11-14T03:31:26.804Z,17.03
2017-11-14T03:33:53.450Z,17.02
2017-11-14T03:36:19.760Z,17.02
2017-11-14T03:38:46.315Z,16.99
2017-11-14T03:41:12.950Z,16.92
2017-11-14T03:43:39.591Z,16.92
2017-11-14T03:46:06.054Z,16.89
2017-11-14T03:48:32.662Z,16.87
2017-11-14T03:50:59.283Z,16.85
2017-11-14T03:53:25.937Z,16.74
2017-11-14T03:55:52.543Z,16.69
2017-11-14T03:58:19.066Z,16.67
2017-11-14T04:00:45.504Z,16.63
2017-11-14T04:03:12.068Z,16.61
2017-11-14T04:05:38.563Z,16.46
2017-11-14T04:08:05.354Z,16.34
2017-11-14T04:10:31.786Z,16.18
2017-11-14T04:12:58.412Z,16.13
2017-11-14T04:15:24.829Z,16.03
2017-11-14T04:17:51.276Z,15.99
2017-11-14T04:20:17.938Z,16.08
2017-11-14T04:22:44.561Z,15.92
2017-11-14T04:25:11.198Z,15.93
2017-11-14T04:27:37.717Z,16.10
2017-11-14T04:30:04.159Z,16.31
2017-11-14T04:32:30.673Z,16.71
2017-11-14T04:34:57.352Z,16.96
2017-11-14T04:37:23.994Z,17.11
2017-11-14T04:39:50.444Z,17.20
2017-11-14T04:42:16.918Z,17.29
2017-11-14T04:44:43.359Z,17.36
2017-11-14T04:47:09.891Z,17.44
2017-11-14T04:49:36.570Z,17.50
2017-11-14T04:52:03.208Z,17.50
2017-11-14T04:54:29.701Z,17.56
2017-11-14T04:56:56.246Z,17.64
2017-11-14T04:59:22.686Z,17.61
2017-11-14T05:01:49.102Z,17.64
2017-11-14T05:04:15.784Z,17.60
2017-11-14T05:06:42.288Z,17.56
2017-11-14T05:09:08.855Z,17.58
2017-11-14T05:11:35.472Z,17.56
2017-11-14T05:14:01.890Z,17.60
2017-11-14T05:16:28.311Z,17.61
2017-11-14T05:18:54.995Z,17.60
2017-11-14T05:21:21.636Z,17.63
2017-11-14T05:23:48.132Z,17.67
2017-11-14T05:26:14.575Z,17.72
2017-11-14T05:28:41.144Z,17.69
2017-11-14T05:31:07.638Z,17.73
2017-11-14T05:33:34.176Z,17.74
2017-11-14T05:36:00.490Z,17.76
2017-11-14T05:38:26.934Z,17.86
2017-11-14T05:40:53.375Z,17.92
2017-11-14T05:43:19.953Z,17.98
2017-11-14T05:45:46.559Z,18.04
2017-11-14T05:48:13.050Z,18.13
2017-11-14T05:50:39.643Z,18.20
2017-11-14T05:55:45.036Z,18.26
2017-11-14T05:58:11.455Z,18.26
2017-11-14T06:00:38.083Z,18.29
2017-11-14T06:03:04.724Z,18.32
2017-11-14T06:05:31.208Z,18.37
2017-11-14T06:07:57.650Z,18.37
2017-11-14T06:10:24.231Z,18.37
2017-11-14T06:12:50.833Z,18.34
2017-11-14T06:15:17.497Z,18.24
2017-11-14T06:17:43.918Z,18.21
2017-11-14T06:20:10.360Z,18.26
2017-11-14T06:22:36.998Z,18.29
2017-11-14T06:25:03.394Z,18.24
2017-11-14T06:27:29.734Z,18.31
2017-11-14T06:29:56.181Z,18.42
2017-11-14T06:32:22.594Z,18.59
2017-11-14T06:34:49.040Z,18.75
2017-11-14T06:37:15.441Z,18.84
2017-11-14T06:39:41.895Z,18.91
2017-11-14T06:42:08.483Z,18.95
2017-11-14T06:44:35.431Z,18.96
2017-11-14T06:47:01.947Z,19.03
2017-11-14T06:49:28.605Z,18.99
2017-11-14T06:51:55.114Z,19.13
2017-11-14T06:54:21.524Z,19.36
2017-11-14T06:56:48.105Z,19.60
2017-11-14T06:59:14.731Z,20.01
2017-11-14T07:01:41.372Z,21.30
2017-11-14T07:04:08.027Z,22.73
2017-11-14T07:06:34.658Z,24.05
2017-11-14T07:09:01.094Z,24.16
2017-11-14T07:11:27.715Z,24.03
2017-11-14T07:13:54.369Z,23.68
2017-11-14T07:16:20.853Z,23.10
2017-11-14T07:18:47.239Z,22.54
2017-11-14T07:21:13.879Z,22.45
2017-11-14T07:23:40.523Z,22.36
2017-11-14T07:26:06.997Z,22.27
2017-11-14T07:28:33.541Z,21.64
2017-11-14T07:30:59.989Z,21.33
2017-11-14T07:33:26.646Z,21.31
2017-11-14T07:35:53.141Z,21.06
2017-11-14T07:38:19.566Z,21.11
2017-11-14T07:40:46.149Z,21.41
2017-11-14T07:43:12.790Z,21.54
2017-11-14T07:45:39.307Z,21.53
2017-11-14T07:48:05.563Z,21.22
2017-11-14T07:50:32.104Z,21.03
2017-11-14T07:52:58.585Z,21.23
2017-11-14T07:55:25.168Z,21.24
2017-11-14T07:57:51.811Z,21.07
2017-11-14T08:00:18.261Z,20.95
2017-11-14T08:02:44.828Z,20.62
2017-11-14T08:05:11.518Z,20.69
2017-11-14T08:07:38.137Z,20.84
2017-11-14T08:10:04.554Z,20.96
2017-11-14T08:12:31.197Z,21.09
2017-11-14T08:14:57.636Z,20.93
2017-11-14T08:17:24.057Z,21.09
2017-11-14T08:19:50.473Z,21.18
2017-11-14T08:22:16.916Z,21.65
2017-11-14T08:24:43.369Z,22.10
2017-11-14T08:27:10.033Z,22.44
2017-11-14T08:29:36.468Z,23.30
2017-11-14T08:32:03.105Z,23.27
2017-11-14T08:34:29.726Z,23.72
2017-11-14T08:36:56.341Z,25.03
2017-11-14T08:39:22.811Z,24.71
2017-11-14T08:41:49.250Z,24.35
2017-11-14T08:44:15.474Z,23.94
2017-11-14T08:46:42.115Z,23.91
2017-11-14T08:49:08.729Z,23.92
2017-11-14T08:51:35.147Z,24.55
2017-11-14T08:54:01.488Z,25.67
2017-11-14T08:56:27.907Z,26.20
2017-11-14T08:58:54.285Z,27.06
2017-11-14T09:01:20.920Z,25.62
2017-11-14T09:03:47.364Z,26.11
2017-11-14T09:06:13.994Z,26.71
2017-11-14T09:08:40.613Z,27.19
2017-11-14T09:11:07.269Z,27.10
2017-11-14T09:13:33.900Z,26.77
2017-11-14T09:16:00.343Z,26.61
2017-11-14T09:18:26.986Z,25.77
2017-11-14T09:20:53.600Z,25.74
2017-11-14T09:23:19.996Z,25.65
2017-11-14T09:25:46.688Z,25.11
2017-11-14T09:28:13.503Z,25.18
2017-11-14T09:30:39.947Z,25.05
2017-11-14T09:33:06.463Z,24.71
2017-11-14T09:35:32.908Z,24.66
2017-11-14T09:37:59.423Z,24.31
2017-11-14T09:40:26.145Z,23.83
2017-11-14T09:42:52.609Z,23.50
2017-11-14T09:45:18.976Z,23.33
2017-11-14T09:47:45.623Z,23.30
2017-11-14T09:50:12.253Z,23.28
2017-11-14T09:52:38.874Z,22.91
2017-11-14T09:55:05.393Z,22.69
2017-11-14T09:57:31.768Z,22.22
2017-11-14T09:59:58.190Z,21.49
2017-11-14T10:02:24.817Z,21.70
2017-11-14T10:04:51.212Z,21.35
2017-11-14T10:07:17.654Z,21.09
2017-11-14T10:09:44.335Z,21.07
2017-11-14T10:12:10.840Z,20.65
2017-11-14T10:14:37.355Z,20.69
2017-11-14T10:17:03.773Z,20.55
2017-11-14T10:19:30.140Z,20.75
2017-11-14T10:21:56.707Z,20.83
2017-11-14T10:24:23.323Z,20.57
2017-11-14T10:26:49.741Z,20.79
2017-11-14T10:29:16.162Z,21.11
2017-11-14T10:31:42.850Z,21.23
2017-11-14T10:34:09.288Z,20.60
2017-11-14T10:36:35.907Z,20.39
2017-11-14T10:39:02.426Z,20.41
2017-11-14T10:41:28.844Z,20.16
2017-11-14T10:43:55.408Z,20.21
2017-11-14T10:46:22.067Z,19.46
2017-11-14T10:48:48.670Z,19.01
2017-11-14T10:51:15.086Z,18.90
2017-11-14T10:53:41.754Z,18.99
2017-11-14T10:56:08.174Z,18.51
2017-11-14T10:58:34.588Z,18.55
2017-11-14T11:01:01.278Z,18.28
2017-11-14T11:03:27.715Z,18.19
2017-11-14T11:05:54.338Z,18.50
2017-11-14T11:08:20.857Z,19.09
2017-11-14T11:10:47.424Z,19.68
2017-11-14T11:13:13.940Z,21.00
2017-11-14T11:15:40.358Z,21.80
2017-11-14T11:18:06.799Z,22.46
2017-11-14T11:20:33.164Z,22.97
2017-11-14T11:22:59.590Z,22.83
2017-11-14T11:25:26.100Z,22.32
2017-11-14T11:27:52.518Z,22.67
2017-11-14T11:30:19.060Z,23.32
2017-11-14T11:32:45.736Z,23.91
2017-11-14T11:35:12.343Z,21.98
2017-11-14T11:37:39.010Z,21.41
2017-11-14T11:40:05.675Z,20.30
2017-11-14T11:42:32.286Z,19.82
2017-11-14T11:44:58.933Z,19.21
2017-11-14T11:47:25.557Z,18.56
2017-11-14T11:49:51.995Z,18.30
2017-11-14T11:52:18.484Z,18.23
2017-11-14T11:54:44.929Z,18.15
2017-11-14T11:57:11.380Z,17.91
2017-11-14T11:59:37.889Z,17.90
2017-11-14T12:02:04.333Z,17.82
2017-11-14T12:04:30.769Z,17.66
2017-11-14T12:06:57.222Z,17.61
2017-11-14T12:09:23.565Z,17.56
2017-11-14T12:11:49.789Z,17.21
2017-11-14T12:14:16.416Z,17.13
2017-11-14T12:16:42.858Z,17.35
2017-11-14T12:19:09.252Z,17.24
2017-11-14T12:21:35.931Z,17.19
2017-11-14T12:24:02.573Z,16.95
2017-11-14T12:26:29.207Z,16.89
2017-11-14T12:28:55.854Z,16.79
2017-11-14T12:31:22.461Z,16.50
2017-11-14T12:33:48.902Z,16.19
2017-11-14T12:36:15.564Z,16.04
2017-11-14T12:38:42.005Z,16.09
2017-11-14T12:41:08.603Z,16.14
2017-11-14T12:43:35.272Z,16.04
2017-11-14T12:46:01.765Z,16.07
2017-11-14T12:48:28.346Z,16.05
2017-11-14T12:50:54.947Z,15.91
2017-11-14T12:53:21.649Z,15.92
2017-11-14T12:55:47.895Z,15.91
2017-11-14T12:58:14.471Z,15.85
2017-11-14T13:00:40.999Z,15.96
2017-11-14T13:03:07.441Z,16.06
2017-11-14T13:05:34.096Z,16.01
2017-11-14T13:08:00.374Z,16.02
2017-11-14T13:10:26.654Z,15.92
2017-11-14T13:12:53.175Z,15.83
2017-11-14T13:15:19.690Z,15.80
2017-11-14T13:17:46.107Z,15.61
2017-11-14T13:20:12.336Z,15.56
2017-11-14T13:22:38.692Z,15.55
2017-11-14T13:25:05.255Z,15.61
2017-11-14T13:27:31.699Z,15.40
2017-11-14T13:29:58.332Z,15.34
2017-11-14T13:32:24.935Z,15.38
2017-11-14T13:34:51.352Z,15.34
2017-11-14T13:37:18.037Z,15.43
2017-11-14T13:39:44.261Z,15.49
2017-11-14T13:42:10.501Z,15.57
2017-11-14T13:44:36.765Z,15.59
2017-11-14T13:47:03.024Z,15.63
2017-11-14T13:49:29.576Z,15.60
2017-11-14T13:51:56.229Z,15.58
2017-11-14T13:54:22.865Z,15.51
2017-11-14T13:56:49.305Z,15.45
2017-11-14T13:59:15.919Z,15.36
2017-11-14T14:01:42.340Z,15.29
2017-11-14T14:04:08.755Z,15.19
2017-11-14T14:06:35.034Z,15.19
2017-11-14T14:09:01.673Z,15.05
2017-11-14T14:11:28.283Z,14.92
2017-11-14T14:13:54.947Z,14.91
2017-11-14T14:16:21.568Z,14.91
2017-11-14T14:18:48.207Z,14.90
2017-11-14T14:21:14.864Z,14.95
2017-11-14T14:23:41.112Z,14.84
2017-11-14T14:26:07.609Z,14.95
2017-11-14T14:28:34.125Z,15.03
2017-11-14T14:31:00.543Z,15.05
2017-11-14T14:33:26.884Z,14.99
2017-11-14T14:35:53.325Z,15.08
2017-11-14T14:38:19.743Z,15.10
2017-11-14T14:40:45.952Z,15.06
2017-11-14T14:43:12.555Z,15.00
2017-11-14T14:45:39.193Z,15.00
2017-11-14T14:48:05.685Z,14.91
2017-11-14T14:50:32.075Z,14.86
2017-11-14T14:52:58.545Z,14.88
2017-11-14T14:55:24.987Z,14.91
2017-11-14T14:57:51.430Z,14.94
2017-11-14T15:00:17.846Z,14.82
2017-11-14T15:02:44.232Z,14.86
2017-11-14T15:05:10.696Z,14.90
2017-11-14T15:07:37.310Z,14.92
2017-11-14T15:10:03.936Z,14.91
2017-11-14T15:12:30.576Z,14.88
2017-11-14T15:14:57.218Z,14.85
2017-11-14T15:17:23.653Z,14.88
2017-11-14T15:19:50.085Z,14.74
2017-11-14T15:22:16.693Z,14.81
2017-11-14T15:24:43.140Z,14.83
2017-11-14T15:27:09.581Z,14.83
2017-11-14T15:29:36.023Z,14.82
2017-11-14T15:32:02.641Z,14.78
2017-11-14T15:34:29.299Z,14.79
2017-11-14T15:36:55.809Z,14.70
2017-11-14T15:39:22.068Z,14.74
2017-11-14T15:41:48.563Z,14.74
2017-11-14T15:44:15.010Z,14.76
2017-11-14T15:46:41.643Z,14.83
2017-11-14T15:49:08.316Z,14.85
2017-11-14T15:51:34.943Z,14.88
2017-11-14T15:54:01.348Z,14.81
2017-11-14T15:56:28.017Z,14.69
2017-11-14T15:58:54.427Z,14.73
2017-11-14T16:01:20.843Z,14.77
2017-11-14T16:03:47.525Z,14.81
2017-11-14T16:06:14.163Z,14.75
2017-11-14T16:08:40.599Z,14.64
2017-11-14T16:11:07.212Z,14.69
2017-11-14T16:13:33.654Z,14.74
2017-11-14T16:16:00.305Z,14.73
2017-11-14T16:18:26.787Z,14.72
2017-11-14T16:20:53.377Z,14.70
2017-11-14T16:23:19.997Z,14.63
2017-11-14T16:25:46.664Z,14.61
2017-11-14T16:28:13.192Z,14.53
2017-11-14T16:30:39.726Z,14.46
2017-11-14T16:33:06.340Z,14.52
2017-11-14T16:35:32.598Z,14.58
2017-11-14T16:37:59.223Z,14.63
2017-11-14T16:40:25.870Z,14.59
2017-11-14T16:42:52.483Z,14.60
2017-11-14T16:45:18.926Z,14.51
2017-11-14T16:47:45.403Z,14.53
2017-11-14T16:50:11.752Z,14.43
2017-11-14T16:52:38.241Z,14.51
2017-11-14T16:55:04.523Z,14.54
2017-11-14T16:57:31.081Z,14.54
2017-11-14T16:59:57.906Z,14.50
2017-11-14T17:02:24.198Z,14.51
2017-11-14T17:04:50.436Z,14.40
2017-11-14T17:07:16.672Z,14.38
2017-11-14T17:09:42.958Z,14.29
2017-11-14T17:12:09.198Z,14.26
2017-11-14T17:14:35.428Z,14.26
2017-11-14T17:17:01.708Z,14.29
2017-11-14T17:19:27.953Z,14.24
2017-11-14T17:21:54.213Z,14.22
2017-11-14T17:24:20.502Z,14.25
2017-11-14T17:26:46.736Z,14.21
2017-11-14T17:29:13.070Z,14.17
2017-11-14T17:31:39.367Z,14.16
2017-11-14T17:34:05.623Z,13.99
2017-11-14T17:36:31.900Z,13.91
2017-11-14T17:38:58.190Z,13.93
2017-11-14T17:41:24.446Z,13.89
2017-11-14T17:43:50.689Z,13.88
2017-11-14T17:46:17.002Z,13.95
2017-11-14T17:48:43.245Z,13.87
2017-11-14T17:51:09.504Z,13.98
2017-11-14T17:53:35.797Z,14.00
2017-11-14T17:56:02.050Z,13.97
2017-11-14T17:58:28.305Z,13.97
2017-11-14T18:00:55.688Z,13.92
2017-11-14T18:03:21.924Z,13.92
2017-11-14T18:05:48.201Z,13.93
2017-11-14T18:08:14.476Z,13.91
2017-11-14T18:10:40.765Z,13.92
2017-11-14T18:13:07.047Z,13.96
2017-11-14T18:15:33.362Z,14.00
2017-11-14T18:17:59.642Z,13.97
2017-11-14T18:20:25.909Z,13.98
2017-11-14T18:22:52.225Z,14.01
2017-11-14T18:25:18.482Z,14.02
2017-11-14T18:27:44.820Z,14.06
2017-11-14T18:30:11.106Z,14.01
2017-11-14T18:32:37.347Z,13.99
2017-11-14T18:35:03.596Z,13.93
2017-11-14T18:37:29.868Z,13.92
2017-11-14T18:39:56.102Z,13.96
2017-11-14T18:42:22.351Z,13.88
2017-11-14T18:44:48.666Z,13.85
2017-11-14T18:47:14.905Z,13.83
2017-11-14T18:49:41.143Z,13.87
2017-11-14T18:52:07.425Z,13.90
2017-11-14T18:54:33.681Z,13.91
2017-11-14T18:56:59.909Z,13.90
2017-11-14T18:59:26.187Z,13.88
2017-11-14T19:01:52.431Z,13.87
2017-11-14T19:04:18.717Z,13.85
2017-11-14T19:06:45.058Z,13.88
2017-11-14T19:09:11.320Z,13.90
2017-11-14T19:11:37.585Z,13.89
2017-11-14T19:14:03.895Z,13.89
2017-11-14T19:16:30.159Z,13.85
2017-11-14T19:18:56.420Z,13.80
2017-11-14T19:21:22.729Z,13.70
2017-11-14T19:23:48.972Z,13.62
2017-11-14T19:26:15.227Z,13.62
2017-11-14T19:28:41.542Z,13.52
2017-11-14T19:31:07.791Z,13.55
2017-11-14T19:33:34.026Z,13.58
2017-11-14T19:36:00.540Z,13.63
2017-11-14T19:38:26.805Z,13.66
2017-11-14T19:40:53.061Z,13.58
2017-11-14T19:43:19.333Z,13.61
2017-11-14T19:45:45.579Z,13.59
2017-11-14T19:48:11.800Z,13.58
2017-11-14T19:50:38.072Z,13.46
2017-11-14T19:53:04.311Z,13.50
2017-11-14T19:55:30.542Z,13.50
2017-11-14T19:57:56.843Z,13.38
2017-11-14T20:00:23.088Z,13.37
2017-11-14T20:02:49.333Z,13.37
2017-11-14T20:05:15.617Z,13.42
2017-11-14T20:07:41.863Z,13.41
2017-11-14T20:10:08.199Z,13.44
2017-11-14T20:12:34.503Z,13.41
2017-11-14T20:15:00.755Z,13.47
2017-11-14T20:17:26.991Z,13.49
2017-11-14T20:19:53.291Z,13.49
2017-11-14T20:22:19.532Z,13.51
2017-11-14T20:24:45.777Z,13.51
2017-11-14T20:27:12.052Z,13.50
2017-11-14T20:29:38.289Z,13.55
2017-11-14T20:32:04.526Z,13.56
2017-11-14T20:34:30.825Z,13.59
2017-11-14T20:36:57.075Z,13.62
2017-11-14T20:39:23.330Z,13.62
2017-11-14T20:41:49.617Z,13.52
2017-11-14T20:44:15.873Z,13.47
2017-11-14T20:46:42.099Z,13.51
2017-11-14T20:49:08.376Z,13.46
2017-11-14T20:51:34.637Z,13.52
2017-11-14T20:54:00.883Z,13.58
2017-11-14T20:56:27.183Z,13.58
2017-11-14T20:58:53.420Z,13.48
2017-11-14T21:01:19.695Z,13.44
2017-11-14T21:03:46.000Z,13.50
2017-11-14T21:06:12.227Z,13.44
2017-11-14T21:08:38.464Z,13.38
2017-11-14T21:11:04.822Z,13.34
2017-11-14T21:13:31.072Z,13.33
2017-11-14T21:15:57.312Z,13.34
2017-11-14T21:18:23.608Z,13.16
2017-11-14T21:20:49.859Z,13.06
2017-11-14T21:23:16.098Z,13.07
2017-11-14T21:25:42.387Z,13.09
2017-11-14T21:28:08.631Z,13.14
2017-11-14T21:30:34.877Z,13.13
2017-11-14T21:33:01.156Z,13.12
2017-11-14T21:35:27.381Z,13.12
2017-11-14T21:37:53.618Z,13.14
2017-11-14T21:40:19.912Z,13.15
2017-11-14T21:42:46.164Z,13.12
2017-11-14T21:45:12.405Z,13.08
2017-11-14T21:47:38.668Z,13.06
2017-11-14T21:50:04.924Z,12.99
2017-11-14T21:52:31.201Z,12.96
2017-11-14T21:54:57.482Z,12.92
2017-11-14T21:57:23.751Z,12.92
2017-11-14T21:59:49.975Z,12.88
2017-11-14T22:02:16.270Z,12.82
2017-11-14T22:04:42.587Z,12.87
2017-11-14T22:07:08.843Z,12.86
2017-11-14T22:09:35.183Z,12.76
2017-11-14T22:12:01.439Z,12.83
2017-11-14T22:14:27.711Z,12.83
2017-11-14T22:16:54.016Z,12.87
2017-11-14T22:19:20.272Z,12.90
2017-11-14T22:21:46.499Z,12.83
2017-11-14T22:24:12.789Z,12.76
2017-11-14T22:26:39.057Z,12.78
2017-11-14T22:29:05.301Z,12.79
2017-11-14T22:31:31.629Z,12.78
2017-11-14T22:33:57.909Z,12.81
2017-11-14T22:36:24.153Z,12.66
2017-11-14T22:38:50.436Z,12.67
2017-11-14T22:41:16.668Z,12.63
2017-11-14T22:43:42.905Z,12.53
2017-11-14T22:46:09.219Z,12.44
2017-11-14T22:48:35.453Z,12.39
2017-11-14T22:51:01.700Z,12.35
2017-11-14T22:53:27.975Z,12.31
2017-11-14T22:55:54.225Z,12.29
2017-11-14T22:58:20.477Z,12.26
2017-11-14T23:00:46.751Z,12.25
2017-11-14T23:03:12.975Z,12.21
2017-11-14T23:05:39.221Z,12.20
2017-11-14T23:08:05.519Z,12.20
2017-11-14T23:10:31.774Z,12.14
2017-11-14T23:12:58.004Z,12.09
2017-11-14T23:15:24.284Z,12.11
2017-11-14T23:17:50.520Z,12.12
2017-11-14T23:20:16.754Z,12.02
2017-11-14T23:22:43.041Z,11.89
2017-11-14T23:25:09.296Z,11.83
2017-11-14T23:27:35.562Z,11.84
2017-11-14T23:30:01.857Z,11.91
2017-11-14T23:32:28.173Z,11.98
2017-11-14T23:34:54.413Z,12.00
2017-11-14T23:37:20.702Z,12.11
2017-11-14T23:39:46.941Z,12.11
2017-11-14T23:42:13.192Z,12.12
2017-11-14T23:44:39.632Z,12.09
2017-11-14T23:47:07.562Z,12.20
2017-11-14T23:49:33.822Z,12.28
2017-11-14T23:52:00.111Z,12.31
2017-11-14T23:54:26.364Z,12.27
2017-11-14T23:56:52.619Z,12.24
